DW0999 Weather Reports


Display with metric or nautical units.
time (UTC)temp
F
wind
direction
speed
MPH
gust
MPH
rain 1hr
in
rain 24hr
in
rain mn
in
humidity
%
barometer
mb
20190216150021 54 100 0.0 2.0 0.00 0.00 0.00 58 1027.0
20190216144521 54 99 0.0 5.0 0.00 0.00 0.00 59 1027.0
20190216143020 53 99 3.0 6.0 0.00 0.00 0.00 58 1027.2
20190216141520 54 107 2.0 5.0 0.00 0.00 0.00 58 1027.1
20190216140034 54 254 4.0 5.0 0.00 0.00 0.00 57 1027.3
20190216134520 54 151 1.0 5.0 0.00 0.00 0.00 59 1027.4
20190216133002 53 159 0.0 4.0 0.00 0.00 0.00 61 1027.3
20190216131503 53 265 2.0 6.0 0.00 0.00 0.00 61 1027.4
20190216130023 50 116 4.0 9.0 0.00 0.00 0.00 64 1027.6
20190216124523 51 140 2.0 5.0 0.00 0.00 0.00 63 1027.7
20190216123020 51 123 2.0 3.0 0.00 0.00 0.00 63 1027.9
20190216121522 47 154 3.0 9.0 0.00 0.00 0.00 69 1028.1
20190216120020 47 104 4.0 7.0 0.00 0.00 0.00 69 1028.2
20190216114520 46 109 2.0 9.0 0.00 0.00 0.00 71 1028.3
20190216113002 45 97 4.0 9.0 0.00 0.00 0.00 72 1028.5
20190216111502 44 89 2.0 9.0 0.00 0.00 0.00 74 1028.6
20190216110102 43 89 4.0 10.0 0.00 0.00 0.00 75 1028.8
20190216104521 41 107 4.0 9.0 0.00 0.00 0.00 78 1028.9
20190216103021 40 79 4.0 7.0 0.00 0.00 0.00 80 1029.1
20190216101532 38 121 4.0 6.0 0.00 0.00 0.00 83 1029.1
20190216100003 37 103 4.0 6.0 0.00 0.00 0.00 85 1029.1
20190216094520 35 111 4.0 6.0 0.00 0.00 0.00 87 1029.1
20190216093023 35 103 4.0 5.0 0.00 0.00 0.00 89 1029.1
20190216091521 33 89 3.0 5.0 0.00 0.00 0.00 93 1029.1
20190216090022 32 104 0.0 4.0 0.00 0.00 0.00 96 1029.3
20190216084521 31 113 1.0 5.0 0.00 0.00 0.00 96 1029.4
20190216083021 30 90 2.0 5.0 0.00 0.00 0.00 96 1029.6
20190216081521 29 100 0.0 2.0 0.00 0.00 0.00 96 1029.5
20190216080018 27 94 2.0 4.0 0.00 0.00 0.00 95 1029.5
20190216074521 27 99 2.0 4.0 0.00 0.00 0.00 95 1029.3
20190216073002 27 109 2.0 5.0 0.00 0.00 0.00 95 1029.6
20190216071521 26 109 2.0 4.0 0.00 0.00 0.00 95 1029.4
20190216070024 27 100 1.0 4.0 0.00 0.00 0.00 95 1029.4
20190216064502 26 111 2.0 4.0 0.00 0.00 0.00 94 1029.3
20190216063003 26 109 0.0 0.0 0.00 0.00 0.00 94 1029.1
20190216061520 26 109 0.0 0.0 0.00 0.00 0.00 94 1028.9
20190216060020 26 109 0.0 0.0 0.00 0.00 0.00 94 1028.9
20190216054522 26 109 0.0 0.0 0.00 0.00 0.00 94 1028.6
20190216053019 26 109 0.0 3.0 0.00 0.00 0.00 93 1028.6
20190216051520 27 110 0.0 0.0 0.00 0.00 0.00 94 1028.6
20190216050100 26 124 0.0 2.0 0.00 0.00 0.00 93 1028.4
20190216044501 27 125 0.0 0.0 0.00 0.00 0.00 93 1028.5
20190216043022 27 125 0.0 0.0 0.00 0.00 0.00 93 1028.5
20190216041520 27 125 0.0 0.0 0.00 0.00 0.00 93 1028.5
20190216040020 27 125 0.0 0.0 0.00 0.00 0.00 93 1028.6
20190216034520 27 125 0.0 0.0 0.00 0.00 0.00 93 1028.5
20190216033020 28 125 0.0 0.0 0.00 0.00 0.00 93 1028.3
20190216031520 28 125 0.0 0.0 0.00 0.00 0.00 93 1028.2
20190216030003 28 125 0.0 0.0 0.00 0.00 0.00 93 1028.2
20190216024521 28 125 0.0 0.0 0.00 0.00 0.00 92 1028.3
20190216023021 28 125 0.0 0.0 0.00 0.00 0.00 92 1028.3
20190216021521 29 125 0.0 0.0 0.00 0.00 0.00 92 1028.4
20190216020031 29 125 0.0 0.0 0.00 0.00 0.00 92 1028.5
20190216014503 29 125 0.0 0.0 0.00 0.00 0.00 92 1028.8
20190216013021 29 125 0.0 0.0 0.00 0.00 0.00 92 1028.8
20190216011521 30 125 0.0 0.0 0.00 0.00 0.00 91 1029.0
20190216010002 30 125 0.0 0.0 0.00 0.00 0.00 91 1029.2
20190216004502 30 125 0.0 0.0 0.00 0.00 0.00 91 1029.2
20190216003021 31 125 0.0 0.0 0.00 0.00 0.00 91 1029.2
20190216001522 31 125 0.0 0.0 0.00 0.00 0.00 90 1029.2
20190216000020 32 125 0.0 0.0 0.00 0.00 0.00 90 1029.2
20190215234522 32 125 0.0 0.0 0.00 0.00 0.00 90 1029.2
20190215233003 32 125 0.0 0.0 0.00 0.00 0.00 90 1029.3
20190215231500 32 125 0.0 0.0 0.00 0.00 0.00 90 1029.3
20190215230054 32 125 0.0 0.0 0.00 0.00 0.00 89 1029.1
20190215224501 32 125 0.0 0.0 0.00 0.00 0.00 88 1029.2
20190215222959 32 125 0.0 0.0 0.00 0.00 0.00 88 1029.4
20190215221500 33 125 0.0 0.0 0.00 0.00 0.00 87 1029.3
20190215220000 33 125 0.0 0.0 0.00 0.00 0.00 87 1029.5
20190215214502 33 125 0.0 0.0 0.00 0.00 0.00 86 1029.5
20190215212957 34 125 0.0 0.0 0.00 0.00 0.00 85 1029.6
20190215211456 35 125 0.0 0.0 0.00 0.00 0.00 85 1029.7
20190215205956 35 125 0.0 0.0 0.00 0.00 0.00 84 1029.9
20190215204456 36 125 0.0 0.0 0.00 0.00 0.00 83 1030.0
20190215202955 37 125 0.0 0.0 0.00 0.00 0.00 82 1030.0
20190215201454 37 125 0.0 0.0 0.00 0.00 0.00 81 1030.2
20190215195954 38 125 0.0 0.0 0.00 0.00 0.00 81 1030.2
20190215194453 38 125 0.0 0.0 0.00 0.00 0.00 80 1030.4
20190215192953 40 125 0.0 0.0 0.00 0.00 0.00 78 1030.5
20190215191452 41 125 0.0 3.0 0.00 0.00 0.00 77 1030.4
20190215185952 41 125 1.0 5.0 0.00 0.00 0.00 77 1030.5
20190215184452 40 117 2.0 3.0 0.00 0.00 0.00 80 1030.5
20190215182952 39 109 0.0 0.0 0.00 0.00 0.00 78 1030.5
20190215181452 40 109 0.0 0.0 0.00 0.00 0.00 77 1030.6
20190215175952 41 109 0.0 0.0 0.00 0.00 0.00 75 1030.5
20190215174452 42 106 0.0 0.0 0.00 0.00 0.00 73 1030.7
20190215172952 43 106 0.0 0.0 0.00 0.00 0.00 71 1030.6
20190215171451 45 106 0.0 0.0 0.00 0.00 0.00 68 1030.7
20190215165951 47 106 0.0 0.0 0.00 0.00 0.00 66 1030.7
20190215164451 48 106 0.0 0.0 0.00 0.00 0.00 64 1030.8
20190215162950 49 103 0.0 0.0 0.00 0.00 0.00 63 1030.7
20190215161450 50 92 0.0 4.0 0.00 0.00 0.00 60 1030.7
20190215155949 51 86 1.0 5.0 0.00 0.00 0.00 58 1030.7
20190215154449 52 75 4.0 5.0 0.00 0.00 0.00 56 1030.8
20190215152948 52 82 3.0 7.0 0.00 0.00 0.00 55 1031.0
20190215151448 53 99 4.0 7.0 0.00 0.00 0.00 54 1031.0